Terminal Aerodrome Forecast
Issued by NWS

Home | Current Version | Previous Version | Text Only | Print | Product List | Glossary On
Versions: 1 2 3 4 5 6 7 8 9 10 11 12 13 14 15 16 17 18 19 20 21 22 23 24 25 26 27 28
000
FTUS46 KMTR 212100 AAA
TAFSFO
TAF AMD
KSFO 212100Z 2121/2224 30010KT P6SM FEW010
     FM212300 28017KT P6SM FEW010
     FM220400 27009KT P6SM SCT020
     FM221200 24005KT P6SM OVC015
     FM221600 26007KT P6SM FEW015
     FM222100 27015G21KT P6SM FEW015=

USA.gov is the U.S. government's official web portal to all federal, state and local government web resources and services.